createdAt,value
2023-02-13T00:02:59.358Z,1.63
2023-02-13T00:06:01.409Z,1.54
2023-02-13T00:09:04.697Z,1.62
2023-02-13T00:12:09.605Z,1.55
2023-02-13T00:15:11.661Z,1.67
2023-02-13T00:18:18.068Z,1.62
2023-02-13T00:21:20.634Z,1.57
2023-02-13T00:24:24.246Z,1.51
2023-02-13T00:27:26.393Z,1.68
2023-02-13T00:30:28.764Z,1.44
2023-02-13T00:33:30.925Z,1.34
2023-02-13T00:36:33.301Z,1.28
2023-02-13T00:39:35.560Z,1.37
2023-02-13T00:42:37.996Z,1.44
2023-02-13T00:45:40.140Z,1.48
2023-02-13T00:48:43.216Z,1.46
2023-02-13T00:51:45.411Z,1.54
2023-02-13T00:54:47.984Z,1.32
2023-02-13T00:57:50.291Z,0.96
2023-02-13T01:00:54.377Z,1.11
2023-02-13T01:03:58.078Z,1.28
2023-02-13T01:07:00.229Z,1.21
2023-02-13T01:10:02.599Z,1.33
2023-02-13T01:13:04.962Z,1.27
2023-02-13T01:16:07.788Z,1.14
2023-02-13T01:19:09.970Z,1.30
2023-02-13T01:22:11.984Z,1.16
2023-02-13T01:25:14.703Z,0.99
2023-02-13T01:28:16.816Z,1.13
2023-02-13T01:31:19.280Z,1.15
2023-02-13T01:34:21.430Z,1.07
2023-02-13T01:37:23.682Z,0.88
2023-02-13T01:40:30.033Z,1.04
2023-02-13T01:43:50.951Z,1.05
2023-02-13T01:46:52.839Z,0.87
2023-02-13T01:50:06.681Z,0.91
2023-02-13T01:53:14.979Z,0.89
2023-02-13T01:56:25.867Z,1.05
2023-02-13T01:59:41.579Z,1.13
2023-02-13T02:02:52.359Z,1.04
2023-02-13T02:05:57.348Z,1.08
2023-02-13T02:09:03.499Z,1.11
2023-02-13T02:12:14.817Z,1.03
2023-02-13T02:15:17.011Z,0.92
2023-02-13T02:18:22.959Z,0.84
2023-02-13T02:21:43.735Z,0.87
2023-02-13T02:24:58.016Z,0.83
2023-02-13T02:28:19.120Z,1.04
2023-02-13T02:31:58.213Z,0.98
2023-02-13T02:35:19.996Z,0.90
2023-02-13T02:38:34.102Z,0.71
2023-02-13T02:41:51.548Z,0.64
2023-02-13T02:45:02.355Z,0.75
2023-02-13T02:48:45.164Z,0.66
2023-02-13T02:51:56.424Z,0.74
2023-02-13T02:55:08.368Z,0.70
2023-02-13T02:58:52.461Z,0.60
2023-02-13T03:02:16.566Z,0.50
2023-02-13T03:05:42.076Z,0.51
2023-02-13T03:09:13.212Z,0.28
2023-02-13T03:12:38.663Z,0.43
2023-02-13T03:16:02.572Z,0.42
2023-02-13T03:19:24.060Z,0.48
2023-02-13T03:22:29.187Z,0.37
2023-02-13T03:26:02.907Z,0.35
2023-02-13T03:29:58.129Z,0.26
2023-02-13T03:33:21.253Z,0.30
2023-02-13T03:36:56.056Z,0.33
2023-02-13T03:40:13.215Z,0.40
2023-02-13T03:43:19.490Z,0.27
2023-02-13T03:46:24.008Z,0.39
2023-02-13T03:49:57.729Z,0.45
2023-02-13T03:53:10.259Z,0.41
2023-02-13T03:56:35.138Z,0.28
2023-02-13T03:59:37.748Z,0.26
2023-02-13T04:03:08.457Z,0.33
2023-02-13T04:06:32.354Z,0.40
2023-02-13T04:09:39.163Z,0.30
2023-02-13T04:13:00.753Z,0.31
2023-02-13T04:16:18.290Z,0.42
2023-02-13T04:19:21.751Z,0.35
2023-02-13T04:22:24.007Z,0.43
2023-02-13T04:25:26.204Z,0.43
2023-02-13T04:28:28.560Z,0.60
2023-02-13T04:31:31.119Z,0.62
2023-02-13T04:34:33.363Z,0.42
2023-02-13T04:37:36.079Z,0.39
2023-02-13T04:40:38.100Z,0.55
2023-02-13T04:43:40.317Z,0.39
2023-02-13T04:46:42.566Z,0.44
2023-02-13T04:49:44.718Z,0.23
2023-02-13T04:52:47.015Z,0.13
2023-02-13T04:55:52.424Z,0.18
2023-02-13T04:58:56.352Z,0.25
2023-02-13T05:01:59.722Z,0.25
2023-02-13T05:05:02.083Z,0.19
2023-02-13T05:08:05.873Z,0.05
2023-02-13T05:11:08.114Z,0.01
2023-02-13T05:14:12.005Z,0.07
2023-02-13T05:17:14.381Z,-0.02
2023-02-13T05:20:18.445Z,0.07
2023-02-13T05:23:23.406Z,-0.10
2023-02-13T05:26:25.823Z,0.04
2023-02-13T05:29:28.194Z,-0.19
2023-02-13T05:32:31.073Z,0.12
2023-02-13T05:35:33.459Z,-0.02
2023-02-13T05:38:36.399Z,-0.02
2023-02-13T05:41:38.635Z,-0.14
2023-02-13T05:44:40.911Z,-0.28
2023-02-13T05:47:44.401Z,-0.31
2023-02-13T05:50:48.391Z,0.00
2023-02-13T05:53:50.981Z,-0.05
2023-02-13T05:56:53.213Z,-0.34
2023-02-13T05:59:56.022Z,-0.28
2023-02-13T06:02:58.431Z,-0.03
2023-02-13T06:06:01.353Z,0.05
2023-02-13T06:09:04.327Z,-0.03
2023-02-13T06:12:07.049Z,0.11
2023-02-13T06:15:10.064Z,0.18
2023-02-13T06:18:13.868Z,0.07
2023-02-13T06:21:19.558Z,-0.01
2023-02-13T06:24:22.358Z,0.13
2023-02-13T06:27:24.519Z,0.15
2023-02-13T06:30:30.383Z,0.14
2023-02-13T06:33:32.801Z,0.11
2023-02-13T06:36:35.379Z,-0.01
2023-02-13T06:39:37.602Z,0.06
2023-02-13T06:42:42.851Z,0.05
2023-02-13T06:45:47.754Z,0.06
2023-02-13T06:48:51.347Z,0.09
2023-02-13T06:51:53.476Z,0.32
2023-02-13T06:54:56.398Z,0.34
2023-02-13T06:57:59.969Z,0.45
2023-02-13T07:01:23.171Z,0.54
2023-02-13T07:04:56.077Z,0.32
2023-02-13T07:08:08.730Z,0.40
2023-02-13T07:11:29.030Z,0.49
2023-02-13T07:15:12.532Z,0.65
2023-02-13T07:18:49.748Z,0.91
2023-02-13T07:22:58.565Z,0.71
2023-02-13T07:26:07.082Z,0.96
2023-02-13T07:29:25.789Z,0.83
2023-02-13T07:32:50.333Z,0.82
2023-02-13T07:36:34.268Z,0.76
2023-02-13T07:45:20.294Z,0.60
2023-02-13T07:48:37.150Z,0.79
2023-02-13T07:51:48.283Z,0.96
2023-02-13T07:55:22.906Z,0.83
2023-02-13T08:03:01.881Z,0.65
2023-02-13T08:07:16.552Z,0.84
2023-02-13T08:10:41.347Z,1.15
2023-02-13T08:14:03.456Z,1.22
2023-02-13T08:17:53.469Z,1.21
2023-02-13T08:20:59.273Z,1.20
2023-02-13T08:28:24.336Z,1.51
2023-02-13T08:31:31.317Z,1.77
2023-02-13T08:34:37.767Z,1.61
2023-02-13T08:37:44.779Z,1.79
2023-02-13T08:40:52.148Z,1.78
2023-02-13T08:44:03.282Z,1.91
2023-02-13T08:47:16.284Z,2.08
2023-02-13T08:50:35.100Z,1.89
2023-02-13T08:54:01.198Z,2.19
2023-02-13T08:57:09.825Z,2.06
2023-02-13T09:00:32.359Z,2.01
2023-02-13T09:03:57.086Z,2.08
2023-02-13T09:07:05.508Z,2.38
2023-02-13T09:10:15.923Z,2.36
2023-02-13T09:13:21.650Z,2.38
2023-02-13T09:16:31.017Z,2.39
2023-02-13T09:19:38.692Z,2.38
2023-02-13T09:22:47.283Z,2.46
2023-02-13T09:25:50.660Z,2.68
2023-02-13T09:28:56.013Z,2.70
2023-02-13T09:32:02.378Z,2.66
2023-02-13T09:35:06.937Z,2.92
2023-02-13T09:38:11.467Z,2.82
2023-02-13T09:41:40.249Z,2.91
2023-02-13T09:44:46.674Z,3.01
2023-02-13T09:47:51.382Z,3.10
2023-02-13T09:50:58.869Z,3.08
2023-02-13T09:54:08.889Z,3.46
2023-02-13T09:57:46.273Z,3.28
2023-02-13T10:01:02.848Z,3.53
2023-02-13T10:05:24.635Z,3.75
2023-02-13T10:09:02.470Z,3.56
2023-02-13T10:12:32.349Z,3.74
2023-02-13T10:15:48.021Z,3.92
2023-02-13T10:19:04.918Z,3.93
2023-02-13T10:22:12.886Z,4.01
2023-02-13T10:25:29.264Z,3.90
2023-02-13T10:28:41.710Z,3.90
2023-02-13T10:31:50.139Z,4.04
2023-02-13T10:34:59.261Z,4.20
2023-02-13T10:38:13.284Z,4.20
2023-02-13T10:41:26.727Z,4.25
2023-02-13T10:44:58.341Z,4.50
2023-02-13T10:48:27.174Z,4.50
2023-02-13T10:51:58.281Z,4.54
2023-02-13T10:59:36.464Z,4.62
2023-02-13T11:17:45.910Z,5.16
2023-02-13T11:18:31.782Z,5.22
2023-02-13T11:22:15.134Z,5.41
2023-02-13T11:25:27.454Z,5.72
2023-02-13T11:29:15.728Z,5.68
2023-02-13T11:32:26.661Z,5.84
2023-02-13T11:35:45.742Z,6.12
2023-02-13T11:39:28.034Z,6.29
2023-02-13T11:42:43.284Z,6.41
2023-02-13T11:46:02.824Z,6.36
2023-02-13T11:49:17.529Z,6.63
2023-02-13T11:52:35.357Z,6.93
2023-02-13T11:55:40.074Z,7.14
2023-02-13T11:58:48.432Z,7.18
2023-02-13T12:02:25.316Z,7.19
2023-02-13T12:05:31.449Z,7.26
2023-02-13T12:08:42.759Z,7.26
2023-02-13T12:16:19.994Z,7.78
2023-02-13T12:19:50.127Z,7.93
2023-02-13T12:23:44.316Z,8.07
2023-02-13T12:27:19.718Z,8.02
2023-02-13T12:30:53.977Z,8.27
2023-02-13T12:34:12.761Z,7.84
2023-02-13T12:37:56.397Z,8.22
2023-02-13T12:41:17.612Z,8.15
2023-02-13T12:44:42.796Z,8.42
2023-02-13T12:48:19.341Z,8.72
2023-02-13T12:51:44.402Z,9.57
2023-02-13T12:55:12.249Z,10.08
2023-02-13T12:58:48.275Z,9.16
2023-02-13T13:06:16.005Z,8.64
2023-02-13T13:09:46.050Z,8.77
2023-02-13T13:13:35.119Z,8.56
2023-02-13T13:17:14.158Z,8.45
2023-02-13T13:21:00.570Z,8.42
2023-02-13T13:24:53.816Z,8.30
2023-02-13T13:28:57.330Z,8.10
2023-02-13T13:32:30.415Z,8.44
2023-02-13T13:35:37.084Z,8.13
2023-02-13T13:39:34.657Z,7.79
2023-02-13T13:42:58.118Z,7.47
2023-02-13T13:46:23.815Z,7.21
2023-02-13T13:49:54.632Z,7.30
2023-02-13T13:53:12.531Z,7.41
2023-02-13T13:56:14.765Z,7.15
2023-02-13T13:59:36.199Z,7.19
2023-02-13T14:02:42.774Z,7.16
2023-02-13T14:05:59.841Z,7.24
2023-02-13T14:09:06.695Z,7.19
2023-02-13T14:12:27.815Z,7.12
2023-02-13T14:15:44.717Z,7.19
2023-02-13T14:19:04.744Z,7.24
2023-02-13T14:22:22.022Z,7.20
2023-02-13T14:25:33.172Z,7.18
2023-02-13T14:28:35.823Z,7.04
2023-02-13T14:31:46.569Z,7.07
2023-02-13T14:34:56.639Z,7.04
2023-02-13T14:38:02.356Z,7.05
2023-02-13T14:41:06.568Z,7.15
2023-02-13T14:44:25.762Z,7.10
2023-02-13T14:47:40.869Z,7.09
2023-02-13T14:50:50.622Z,7.02
2023-02-13T14:53:58.729Z,6.95
2023-02-13T14:57:32.666Z,6.91
2023-02-13T15:00:44.545Z,6.96
2023-02-13T15:03:49.344Z,6.92
2023-02-13T15:06:54.290Z,7.02
2023-02-13T15:10:16.484Z,7.02
2023-02-13T15:13:29.396Z,6.88
2023-02-13T15:16:32.102Z,6.89
2023-02-13T15:19:37.831Z,6.80
2023-02-13T15:22:46.287Z,6.79
2023-02-13T15:26:01.552Z,6.87
2023-02-13T15:29:31.124Z,6.83
2023-02-13T15:32:37.954Z,6.78
2023-02-13T15:35:43.958Z,6.67
2023-02-13T15:38:58.990Z,6.80
2023-02-13T15:42:07.746Z,6.76
2023-02-13T15:45:18.825Z,6.82
2023-02-13T15:48:21.338Z,6.74
2023-02-13T15:51:35.034Z,6.66
2023-02-13T15:54:53.066Z,6.71
2023-02-13T15:58:00.685Z,6.66
2023-02-13T16:01:09.553Z,6.57
2023-02-13T16:04:18.904Z,6.60
2023-02-13T16:07:26.092Z,6.54
2023-02-13T16:10:37.965Z,6.72
2023-02-13T16:14:04.304Z,6.75
2023-02-13T16:17:24.881Z,6.64
2023-02-13T16:20:54.315Z,6.57
2023-02-13T16:24:04.434Z,6.48
2023-02-13T16:27:23.846Z,6.55
2023-02-13T16:30:42.188Z,6.57
2023-02-13T16:33:47.345Z,6.41
2023-02-13T16:36:52.099Z,6.35
2023-02-13T16:40:35.850Z,6.28
2023-02-13T16:43:52.401Z,6.15
2023-02-13T16:47:22.582Z,5.97
2023-02-13T16:50:25.762Z,5.96
2023-02-13T16:53:27.934Z,5.93
2023-02-13T16:56:51.855Z,5.90
2023-02-13T17:00:17.164Z,5.81
2023-02-13T17:03:20.372Z,5.90
2023-02-13T17:06:25.585Z,6.05
2023-02-13T17:09:28.075Z,6.09
2023-02-13T17:12:35.694Z,6.10
2023-02-13T17:15:42.243Z,6.24
2023-02-13T17:18:45.728Z,6.17
2023-02-13T17:21:55.884Z,6.10
2023-02-13T17:25:00.015Z,6.13
2023-02-13T17:28:17.874Z,6.24
2023-02-13T17:31:20.151Z,6.22
2023-02-13T17:34:23.780Z,6.29
2023-02-13T17:37:28.237Z,6.26
2023-02-13T17:40:33.114Z,6.18
2023-02-13T17:43:35.427Z,6.33
2023-02-13T17:46:38.175Z,6.45
2023-02-13T17:49:42.583Z,6.45
2023-02-13T17:52:49.085Z,6.30
2023-02-13T17:55:52.197Z,6.02
2023-02-13T17:58:57.161Z,5.95
2023-02-13T18:01:59.794Z,5.86
2023-02-13T18:05:08.079Z,5.72
2023-02-13T18:08:11.546Z,5.70
2023-02-13T18:11:15.113Z,5.75
2023-02-13T18:14:20.264Z,5.62
2023-02-13T18:17:23.660Z,5.61
2023-02-13T18:20:25.864Z,5.53
2023-02-13T18:23:30.054Z,5.64
2023-02-13T18:26:32.877Z,5.59
2023-02-13T18:29:37.925Z,5.43
2023-02-13T18:32:42.349Z,5.33
2023-02-13T18:35:45.193Z,5.31
2023-02-13T18:38:47.547Z,5.27
2023-02-13T18:41:50.261Z,5.11
2023-02-13T18:44:53.383Z,5.15
2023-02-13T18:47:58.509Z,5.11
2023-02-13T18:51:02.591Z,5.13
2023-02-13T18:54:06.299Z,5.10
2023-02-13T18:57:08.947Z,5.09
2023-02-13T19:00:14.504Z,5.18
2023-02-13T19:03:17.566Z,5.16
2023-02-13T19:06:24.508Z,5.05
2023-02-13T19:09:27.040Z,5.10
2023-02-13T19:12:31.441Z,5.24
2023-02-13T19:15:36.586Z,5.25
2023-02-13T19:18:40.816Z,5.03
2023-02-13T19:21:44.113Z,5.01
2023-02-13T19:24:46.470Z,5.03
2023-02-13T19:27:48.717Z,5.10
2023-02-13T19:30:51.972Z,5.08
2023-02-13T19:33:55.359Z,4.95
2023-02-13T19:36:58.202Z,4.86
2023-02-13T19:40:01.621Z,5.02
2023-02-13T19:43:06.338Z,4.97
2023-02-13T19:46:13.250Z,4.94
2023-02-13T19:49:17.094Z,4.92
2023-02-13T19:52:20.987Z,4.82
2023-02-13T19:55:24.836Z,4.85
2023-02-13T19:58:27.433Z,4.89
2023-02-13T20:01:31.530Z,4.78
2023-02-13T20:04:39.177Z,4.86
2023-02-13T20:07:41.532Z,4.80
2023-02-13T20:10:46.461Z,4.66
2023-02-13T20:13:52.905Z,4.64
2023-02-13T20:16:58.301Z,4.81
2023-02-13T20:20:01.154Z,4.83
2023-02-13T20:23:04.260Z,4.68
2023-02-13T20:26:13.987Z,4.69
2023-02-13T20:29:17.548Z,4.82
2023-02-13T20:32:20.215Z,4.93
2023-02-13T20:35:23.890Z,4.69
2023-02-13T20:38:27.260Z,4.72
2023-02-13T20:41:32.735Z,4.74
2023-02-13T20:44:35.606Z,4.77
2023-02-13T20:47:38.629Z,4.77
2023-02-13T20:50:42.434Z,4.67
2023-02-13T20:53:46.123Z,4.74
2023-02-13T20:56:49.541Z,4.67
2023-02-13T20:59:51.951Z,4.76
2023-02-13T21:03:02.856Z,4.70
2023-02-13T21:06:06.286Z,4.71
2023-02-13T21:09:10.148Z,4.64
2023-02-13T21:12:14.596Z,4.76
2023-02-13T21:15:19.594Z,4.82
2023-02-13T21:18:22.371Z,4.64
2023-02-13T21:21:31.482Z,4.64
2023-02-13T21:24:34.478Z,4.60
2023-02-13T21:27:37.017Z,4.55
2023-02-13T21:30:39.408Z,4.43
2023-02-13T21:33:41.989Z,4.62
2023-02-13T21:36:45.250Z,4.50
2023-02-13T21:39:47.677Z,4.61
2023-02-13T21:42:53.010Z,4.58
2023-02-13T21:45:55.424Z,4.46
2023-02-13T21:49:02.889Z,4.58
2023-02-13T21:52:05.253Z,4.50
2023-02-13T21:55:08.864Z,4.48
2023-02-13T21:58:11.841Z,4.46
2023-02-13T22:01:26.546Z,4.25
2023-02-13T22:04:30.327Z,4.59
2023-02-13T22:07:32.285Z,4.53
2023-02-13T22:10:34.950Z,4.40
2023-02-13T22:13:40.860Z,4.31
2023-02-13T22:16:44.414Z,4.13
2023-02-13T22:19:48.134Z,4.05
2023-02-13T22:22:50.191Z,3.86
2023-02-13T22:25:53.074Z,3.95
2023-02-13T22:28:59.015Z,3.73
2023-02-13T22:32:02.285Z,3.67
2023-02-13T22:35:05.459Z,3.76
2023-02-13T22:38:07.446Z,3.76
2023-02-13T22:41:13.559Z,3.61
2023-02-13T22:44:16.044Z,3.69
2023-02-13T22:47:20.751Z,3.73
2023-02-13T22:50:23.721Z,3.85
2023-02-13T22:53:25.842Z,3.77
2023-02-13T22:56:29.349Z,3.94
2023-02-13T22:59:38.181Z,3.88
2023-02-13T23:02:41.760Z,3.92
2023-02-13T23:05:45.122Z,3.85
2023-02-13T23:08:52.793Z,3.79
2023-02-13T23:12:16.627Z,3.91
2023-02-13T23:15:18.699Z,3.95
2023-02-13T23:18:27.608Z,4.06
2023-02-13T23:21:29.530Z,3.98
2023-02-13T23:24:32.559Z,4.01
2023-02-13T23:27:35.852Z,3.98
2023-02-13T23:30:40.277Z,3.91
2023-02-13T23:33:42.576Z,3.88
2023-02-13T23:36:44.832Z,3.97
2023-02-13T23:39:46.889Z,3.94
2023-02-13T23:42:51.536Z,3.91
2023-02-13T23:45:53.999Z,3.84
2023-02-13T23:48:56.442Z,3.78
2023-02-13T23:51:59.992Z,3.81
2023-02-13T23:55:02.127Z,3.72
2023-02-13T23:58:04.334Z,3.75
